createdAt,value
2018-06-12T00:00:23.783Z,27.62
2018-06-12T00:03:34.523Z,19.45
2018-06-12T00:06:45.348Z,17.17
2018-06-12T00:09:55.953Z,17.00
2018-06-12T00:13:06.769Z,22.98
2018-06-12T00:16:17.691Z,19.42
2018-06-12T00:19:28.895Z,18.57
2018-06-12T00:22:39.209Z,18.82
2018-06-12T00:25:50.171Z,20.43
2018-06-12T00:29:01.075Z,13.58
2018-06-12T00:32:12.138Z,14.73
2018-06-12T00:35:22.445Z,16.25
2018-06-12T00:38:33.178Z,16.75
2018-06-12T00:41:45.126Z,18.65
2018-06-12T00:44:55.656Z,17.92
2018-06-12T00:48:06.508Z,28.83
2018-06-12T00:51:17.222Z,20.95
2018-06-12T00:54:28.151Z,20.70
2018-06-12T00:57:39.131Z,25.80
2018-06-12T01:00:50.050Z,15.32
2018-06-12T01:04:00.869Z,17.52
2018-06-12T01:07:12.653Z,15.60
2018-06-12T01:10:23.230Z,15.35
2018-06-12T01:13:33.746Z,14.05
2018-06-12T01:16:44.663Z,23.00
2018-06-12T01:19:55.737Z,19.07
2018-06-12T01:23:06.426Z,15.65
2018-06-12T01:26:17.170Z,16.85
2018-06-12T01:29:31.016Z,18.55
2018-06-12T01:32:41.476Z,24.60
2018-06-12T01:35:51.944Z,19.57
2018-06-12T01:39:03.136Z,20.45
2018-06-12T01:42:13.630Z,16.35
2018-06-12T01:45:24.440Z,19.92
2018-06-12T01:48:34.762Z,22.17
2018-06-12T01:51:45.275Z,26.40
2018-06-12T01:54:55.522Z,23.38
2018-06-12T01:58:06.344Z,14.58
2018-06-12T02:01:17.420Z,22.90
2018-06-12T02:04:28.138Z,14.30
2018-06-12T02:07:38.897Z,18.07
2018-06-12T02:10:49.004Z,16.05
2018-06-12T02:13:59.219Z,22.85
2018-06-12T02:17:10.284Z,28.85
2018-06-12T02:20:21.161Z,16.42
2018-06-12T02:23:31.271Z,22.17
2018-06-12T02:26:41.652Z,22.17
2018-06-12T02:29:52.721Z,18.92
2018-06-12T02:33:03.483Z,20.75
2018-06-12T02:36:14.240Z,24.87
2018-06-12T02:39:25.155Z,17.12
2018-06-12T02:42:36.017Z,26.20
2018-06-12T02:45:46.998Z,22.65
2018-06-12T02:48:58.186Z,15.98
2018-06-12T02:52:08.764Z,22.15
2018-06-12T02:55:19.458Z,17.52
2018-06-12T02:58:30.675Z,21.27
2018-06-12T03:01:41.914Z,22.70
2018-06-12T03:04:52.302Z,23.92
2018-06-12T03:08:03.112Z,17.05
2018-06-12T03:11:13.851Z,31.27
2018-06-12T03:14:24.553Z,24.23
2018-06-12T03:17:35.651Z,22.37
2018-06-12T03:20:47.220Z,23.73
2018-06-12T03:23:57.456Z,25.02
2018-06-12T03:27:07.687Z,23.55
2018-06-12T03:30:18.695Z,15.30
2018-06-12T03:33:29.128Z,20.50
2018-06-12T03:36:39.658Z,27.87
2018-06-12T03:39:49.720Z,32.80
2018-06-12T03:43:00.867Z,23.20
2018-06-12T03:46:11.671Z,30.60
2018-06-12T03:49:21.805Z,19.90
2018-06-12T03:52:33.704Z,24.23
2018-06-12T03:55:43.783Z,22.25
2018-06-12T03:58:54.585Z,20.00
2018-06-12T04:02:07.514Z,19.73
2018-06-12T04:05:18.210Z,24.45
2018-06-12T04:08:29.173Z,22.82
2018-06-12T04:11:39.754Z,29.52
2018-06-12T04:14:50.202Z,28.42
2018-06-12T04:18:01.151Z,20.85
2018-06-12T04:21:12.248Z,24.43
2018-06-12T04:24:23.017Z,25.02
2018-06-12T04:27:33.943Z,20.95
2018-06-12T04:30:44.843Z,25.27
2018-06-12T04:33:55.125Z,17.67
2018-06-12T04:37:05.583Z,26.55
2018-06-12T04:40:16.043Z,27.00
2018-06-12T04:43:26.737Z,18.17
2018-06-12T04:46:37.671Z,21.02
2018-06-12T04:49:48.144Z,23.38
2018-06-12T04:52:58.968Z,17.95
2018-06-12T04:56:10.042Z,21.37
2018-06-12T04:59:20.953Z,23.77
2018-06-12T05:02:32.326Z,17.62
2018-06-12T05:05:42.983Z,22.73
2018-06-12T05:08:53.795Z,21.40
2018-06-12T05:12:04.427Z,23.05
2018-06-12T05:15:15.250Z,21.87
2018-06-12T05:18:26.036Z,25.90
2018-06-12T05:21:36.802Z,25.57
2018-06-12T05:24:47.680Z,21.40
2018-06-12T05:27:58.398Z,20.12
2018-06-12T05:31:09.154Z,21.85
2018-06-12T05:34:19.987Z,26.93
2018-06-12T05:37:30.727Z,22.50
2018-06-12T05:40:41.403Z,14.95
2018-06-12T05:43:52.183Z,26.30
2018-06-12T05:47:03.325Z,15.32
2018-06-12T05:50:14.211Z,21.68
2018-06-12T05:53:25.133Z,19.77
2018-06-12T05:56:35.376Z,25.43
2018-06-12T05:59:45.799Z,23.27
2018-06-12T06:02:57.583Z,13.28
2018-06-12T06:06:07.834Z,18.10
2018-06-12T06:09:18.530Z,24.65
2018-06-12T06:12:29.652Z,23.07
2018-06-12T06:15:40.552Z,14.85
2018-06-12T06:18:51.535Z,35.73
2018-06-12T06:22:03.204Z,25.12
2018-06-12T06:25:13.458Z,19.35
2018-06-12T06:28:24.346Z,12.33
2018-06-12T06:31:35.118Z,17.77
2018-06-12T06:34:45.950Z,19.37
2018-06-12T06:37:56.696Z,23.57
2018-06-12T06:41:07.549Z,20.48
2018-06-12T06:44:18.228Z,17.35
2018-06-12T06:47:29.200Z,23.75
2018-06-12T06:50:40.057Z,18.92
2018-06-12T06:53:50.975Z,27.93
2018-06-12T06:57:01.776Z,24.12
2018-06-12T07:00:12.687Z,19.82
2018-06-12T07:03:23.703Z,18.70
2018-06-12T07:06:34.141Z,19.73
2018-06-12T07:09:45.084Z,21.40
2018-06-12T07:12:56.246Z,19.12
2018-06-12T07:16:06.787Z,23.30
2018-06-12T07:19:17.549Z,27.62
2018-06-12T07:22:28.233Z,26.17
2018-06-12T07:25:39.304Z,24.10
2018-06-12T07:28:49.519Z,19.05
2018-06-12T07:32:00.263Z,20.77
2018-06-12T07:35:11.146Z,17.90
2018-06-12T07:38:22.196Z,16.97
2018-06-12T07:41:32.959Z,28.32
2018-06-12T07:44:43.822Z,26.85
2018-06-12T07:47:54.627Z,25.30
2018-06-12T07:51:05.780Z,31.07
2018-06-12T07:54:16.349Z,29.27
2018-06-12T07:57:26.503Z,27.37
2018-06-12T08:00:37.219Z,27.30
2018-06-12T08:03:48.658Z,20.62
2018-06-12T08:06:59.041Z,30.23
2018-06-12T08:10:09.751Z,26.57
2018-06-12T08:13:20.488Z,28.25
2018-06-12T08:16:30.522Z,34.05
2018-06-12T08:19:40.923Z,22.15
2018-06-12T08:22:51.482Z,28.52
2018-06-12T08:26:01.878Z,22.00
2018-06-12T08:29:12.494Z,27.10
2018-06-12T08:32:22.843Z,19.02
2018-06-12T08:35:33.688Z,34.73
2018-06-12T08:38:44.467Z,37.05
2018-06-12T08:41:54.577Z,27.70
2018-06-12T08:45:05.835Z,31.87
2018-06-12T08:48:16.649Z,40.50
2018-06-12T08:51:27.414Z,34.55
2018-06-12T08:54:38.078Z,19.17
2018-06-12T08:57:48.384Z,28.85
2018-06-12T09:00:58.826Z,24.00
2018-06-12T09:04:09.808Z,25.35
2018-06-12T09:07:20.426Z,20.95
2018-06-12T09:10:31.267Z,21.12
2018-06-12T09:13:42.071Z,22.07
2018-06-12T09:16:52.219Z,34.85
2018-06-12T09:20:03.501Z,33.40
2018-06-12T09:23:13.468Z,20.05
2018-06-12T09:26:23.581Z,28.67
2018-06-12T09:29:33.808Z,25.30
2018-06-12T09:32:44.813Z,26.33
2018-06-12T09:35:59.064Z,22.73
2018-06-12T09:39:10.253Z,21.70
2018-06-12T09:42:21.305Z,22.30
2018-06-12T09:45:32.422Z,20.70
2018-06-12T09:48:43.145Z,24.43
2018-06-12T09:51:54.033Z,18.23
2018-06-12T09:55:05.416Z,31.12
2018-06-12T09:58:15.693Z,25.57
2018-06-12T10:01:26.618Z,21.33
2018-06-12T10:04:37.969Z,26.57
2018-06-12T10:07:48.639Z,25.10
2018-06-12T10:10:59.349Z,31.87
2018-06-12T10:14:11.240Z,31.30
2018-06-12T10:17:22.429Z,26.87
2018-06-12T10:20:32.875Z,25.02
2018-06-12T10:23:43.893Z,21.25
2018-06-12T10:26:54.047Z,25.10
2018-06-12T10:30:05.050Z,23.95
2018-06-12T10:33:16.143Z,17.42
2018-06-12T10:36:27.109Z,28.17
2018-06-12T10:39:37.964Z,20.70
2018-06-12T10:42:48.578Z,25.68
2018-06-12T10:45:58.824Z,27.20
2018-06-12T10:49:09.667Z,23.50
2018-06-12T10:52:19.654Z,24.15
2018-06-12T10:55:30.397Z,23.62
2018-06-12T10:58:41.216Z,30.25
2018-06-12T11:01:51.233Z,27.87
2018-06-12T11:05:02.299Z,24.35
2018-06-12T11:08:13.132Z,23.55
2018-06-12T11:11:23.977Z,21.12
2018-06-12T11:14:34.807Z,19.50
2018-06-12T11:17:45.538Z,22.32
2018-06-12T11:20:56.323Z,29.02
2018-06-12T11:24:07.278Z,31.87
2018-06-12T11:27:18.176Z,26.75
2018-06-12T11:30:28.841Z,26.37
2018-06-12T11:33:39.395Z,22.27
2018-06-12T11:36:50.339Z,20.48
2018-06-12T11:40:01.281Z,30.80
2018-06-12T11:43:12.099Z,20.68
2018-06-12T11:46:22.784Z,23.38
2018-06-12T11:49:33.219Z,23.27
2018-06-12T11:52:43.951Z,26.90
2018-06-12T11:55:54.932Z,24.32
2018-06-12T11:59:05.024Z,27.30
2018-06-12T12:02:15.265Z,25.25
2018-06-12T12:05:26.289Z,18.73
2018-06-12T12:08:36.911Z,27.20
2018-06-12T12:11:47.721Z,19.52
2018-06-12T12:14:58.528Z,22.58
2018-06-12T12:18:09.677Z,24.50
2018-06-12T12:21:20.396Z,27.95
2018-06-12T12:24:31.573Z,20.77
2018-06-12T12:27:41.775Z,21.07
2018-06-12T12:30:53.242Z,26.27
2018-06-12T12:34:03.365Z,24.55
2018-06-12T12:37:14.383Z,28.60
2018-06-12T12:40:25.854Z,48.38
2018-06-12T12:43:36.234Z,35.00
2018-06-12T12:46:46.246Z,34.00
2018-06-12T12:49:56.334Z,29.45
2018-06-12T12:53:06.655Z,30.05
2018-06-12T12:56:17.326Z,31.95
2018-06-12T12:59:28.566Z,29.35
2018-06-12T13:02:39.242Z,35.00
2018-06-12T13:05:50.368Z,36.73
2018-06-12T13:09:01.088Z,39.05
2018-06-12T13:12:11.576Z,27.77
2018-06-12T13:15:21.885Z,33.98
2018-06-12T13:18:32.767Z,31.00
2018-06-12T13:21:43.747Z,32.55
2018-06-12T13:24:54.183Z,28.50
2018-06-12T13:28:05.194Z,31.77
2018-06-12T13:31:16.020Z,30.52
2018-06-12T13:34:26.217Z,34.70
2018-06-12T13:37:36.428Z,34.67
2018-06-12T13:40:46.797Z,32.63
2018-06-12T13:43:58.320Z,47.08
2018-06-12T13:47:08.949Z,37.48
2018-06-12T13:50:19.899Z,53.95
2018-06-12T13:53:30.468Z,34.85
2018-06-12T13:56:41.161Z,35.60
2018-06-12T13:59:51.564Z,37.00
2018-06-12T14:03:01.583Z,30.57
2018-06-12T14:06:12.126Z,31.60
2018-06-12T14:09:23.162Z,37.80
2018-06-12T14:12:34.012Z,38.63
2018-06-12T14:15:44.164Z,50.05
2018-06-12T14:18:55.203Z,25.62
2018-06-12T14:22:06.265Z,28.27
2018-06-12T14:25:17.000Z,30.62
2018-06-12T14:28:27.768Z,26.62
2018-06-12T14:31:38.566Z,23.75
2018-06-12T14:34:48.948Z,25.75
2018-06-12T14:37:59.976Z,22.80
2018-06-12T14:41:10.185Z,16.80
2018-06-12T14:44:20.982Z,20.77
2018-06-12T14:47:31.821Z,18.15
2018-06-12T14:50:42.049Z,21.30
2018-06-12T14:53:52.856Z,20.62
2018-06-12T14:57:05.138Z,16.67
2018-06-12T15:00:15.584Z,17.92
2018-06-12T15:03:26.261Z,19.95
2018-06-12T15:06:37.254Z,17.70
2018-06-12T15:09:47.800Z,23.15
2018-06-12T15:12:58.907Z,19.82
2018-06-12T15:16:09.252Z,19.17
2018-06-12T15:19:19.904Z,21.10
2018-06-12T15:22:30.830Z,21.48
2018-06-12T15:25:40.865Z,16.35
2018-06-12T15:28:51.164Z,21.87
2018-06-12T15:32:01.273Z,14.55
2018-06-12T15:35:12.204Z,16.20
2018-06-12T15:38:22.612Z,14.10
2018-06-12T15:41:33.474Z,19.17
2018-06-12T15:44:43.568Z,15.13
2018-06-12T15:47:54.432Z,15.08
2018-06-12T15:51:05.318Z,17.10
2018-06-12T15:54:15.331Z,13.90
2018-06-12T15:57:26.238Z,15.05
2018-06-12T16:00:36.845Z,16.95
2018-06-12T16:03:47.515Z,14.58
2018-06-12T16:06:58.555Z,13.78
2018-06-12T16:10:08.820Z,20.52
2018-06-12T16:13:19.743Z,14.45
2018-06-12T16:16:30.536Z,17.35
2018-06-12T16:19:41.413Z,19.62
2018-06-12T16:22:51.904Z,13.28
2018-06-12T16:26:02.692Z,14.25
2018-06-12T16:29:13.807Z,15.00
2018-06-12T16:32:24.452Z,15.85
2018-06-12T16:35:35.430Z,12.90
2018-06-12T16:38:48.552Z,12.78
2018-06-12T16:41:59.958Z,15.50
2018-06-12T16:45:12.103Z,15.65
2018-06-12T16:48:22.636Z,16.30
2018-06-12T16:51:33.264Z,14.40
2018-06-12T16:54:43.240Z,17.17
2018-06-12T16:57:54.159Z,16.90
2018-06-12T17:01:05.130Z,11.38
2018-06-12T17:04:15.570Z,11.22
2018-06-12T17:07:27.315Z,17.23
2018-06-12T17:10:38.214Z,13.13
2018-06-12T17:13:48.878Z,11.15
2018-06-12T17:16:59.817Z,10.03
2018-06-12T17:20:10.196Z,12.20
2018-06-12T17:23:21.391Z,13.55
2018-06-12T17:26:31.972Z,13.72
2018-06-12T17:29:43.343Z,16.10
2018-06-12T17:32:53.974Z,11.38
2018-06-12T17:36:04.808Z,12.00
2018-06-12T17:39:15.344Z,13.20
2018-06-12T17:42:26.201Z,12.13
2018-06-12T17:45:37.222Z,12.68
2018-06-12T17:48:48.264Z,15.05
2018-06-12T17:51:58.454Z,10.95
2018-06-12T17:55:09.222Z,14.50
2018-06-12T17:58:20.144Z,14.68
2018-06-12T18:01:31.078Z,14.00
2018-06-12T18:04:41.733Z,11.57
2018-06-12T18:07:52.727Z,11.93
2018-06-12T18:11:03.256Z,11.83
2018-06-12T18:14:14.655Z,16.15
2018-06-12T18:17:25.728Z,12.00
2018-06-12T18:20:36.709Z,11.38
2018-06-12T18:23:47.560Z,12.18
2018-06-12T18:26:58.340Z,11.50
2018-06-12T18:30:09.084Z,18.57
2018-06-12T18:33:20.161Z,15.35
2018-06-12T18:36:30.722Z,13.90
2018-06-12T18:39:41.544Z,13.45
2018-06-12T18:42:52.336Z,11.65
2018-06-12T18:46:03.384Z,18.73
2018-06-12T18:49:14.208Z,10.45
2018-06-12T18:52:24.741Z,12.40
2018-06-12T18:55:35.429Z,14.80
2018-06-12T18:58:46.845Z,13.70
2018-06-12T19:01:57.047Z,14.93
2018-06-12T19:05:07.423Z,12.47
2018-06-12T19:08:17.811Z,19.20
2018-06-12T19:11:28.637Z,15.00
2018-06-12T19:14:39.138Z,13.53
2018-06-12T19:17:50.238Z,11.83
2018-06-12T19:21:00.740Z,10.88
2018-06-12T19:24:11.455Z,12.43
2018-06-12T19:27:22.123Z,12.07
2018-06-12T19:30:32.840Z,13.70
2018-06-12T19:33:42.960Z,14.30
2018-06-12T19:36:53.793Z,13.62
2018-06-12T19:40:04.718Z,15.78
2018-06-12T19:43:15.728Z,34.05
2018-06-12T19:46:26.023Z,10.93
2018-06-12T19:49:36.943Z,10.63
2018-06-12T19:52:47.516Z,11.25
2018-06-12T19:55:58.438Z,11.73
2018-06-12T19:59:09.091Z,15.05
2018-06-12T20:02:20.098Z,11.70
2018-06-12T20:05:30.795Z,9.80
2018-06-12T20:08:41.523Z,11.65
2018-06-12T20:11:51.436Z,12.07
2018-06-12T20:15:02.036Z,17.27
2018-06-12T20:18:12.491Z,10.25
2018-06-12T20:21:23.264Z,12.63
2018-06-12T20:24:33.932Z,12.65
2018-06-12T20:27:45.093Z,10.30
2018-06-12T20:30:55.628Z,12.15
2018-06-12T20:34:06.576Z,12.23
2018-06-12T20:37:16.982Z,11.15
2018-06-12T20:40:27.653Z,15.25
2018-06-12T20:43:38.403Z,15.25
2018-06-12T20:46:49.366Z,13.98
2018-06-12T20:50:00.108Z,11.83
2018-06-12T20:53:10.973Z,12.28
2018-06-12T20:56:21.864Z,11.45
2018-06-12T20:59:32.683Z,11.35
2018-06-12T21:02:43.186Z,17.07
2018-06-12T21:05:54.007Z,11.43
2018-06-12T21:09:06.451Z,12.60
2018-06-12T21:12:17.307Z,39.78
2018-06-12T21:15:27.903Z,11.60
2018-06-12T21:18:38.537Z,13.88
2018-06-12T21:21:48.928Z,12.43
2018-06-12T21:24:59.812Z,16.40
2018-06-12T21:28:10.389Z,12.35
2018-06-12T21:31:22.379Z,13.40
2018-06-12T21:34:33.064Z,12.85
2018-06-12T21:37:43.791Z,14.73
2018-06-12T21:40:53.881Z,16.50
2018-06-12T21:44:03.909Z,10.35
2018-06-12T21:47:14.612Z,11.83
2018-06-12T21:50:25.016Z,13.30
2018-06-12T21:53:35.016Z,14.60
2018-06-12T21:56:45.650Z,12.40
2018-06-12T21:59:56.115Z,20.85
2018-06-12T22:03:06.871Z,15.95
2018-06-12T22:06:17.904Z,18.55
2018-06-12T22:09:28.783Z,12.23
2018-06-12T22:12:38.842Z,11.68
2018-06-12T22:15:49.950Z,14.87
2018-06-12T22:19:00.912Z,14.98
2018-06-12T22:22:11.589Z,11.48
2018-06-12T22:25:22.451Z,12.88
2018-06-12T22:28:32.452Z,18.82
2018-06-12T22:31:43.196Z,10.50
2018-06-12T22:34:53.543Z,13.55
2018-06-12T22:38:04.365Z,11.18
2018-06-12T22:41:15.076Z,11.43
2018-06-12T22:44:25.976Z,12.70
2018-06-12T22:47:36.906Z,13.32
2018-06-12T22:50:47.847Z,12.47
2018-06-12T22:53:58.583Z,11.43
2018-06-12T22:57:09.331Z,9.50
2018-06-12T23:00:21.343Z,9.55
2018-06-12T23:03:31.396Z,10.78
2018-06-12T23:06:41.558Z,12.50
2018-06-12T23:09:51.839Z,10.72
2018-06-12T23:13:02.557Z,28.50
2018-06-12T23:16:13.282Z,31.37
2018-06-12T23:19:23.922Z,11.12
2018-06-12T23:22:33.981Z,11.88
2018-06-12T23:25:44.585Z,15.68
2018-06-12T23:28:55.282Z,13.30
2018-06-12T23:32:06.043Z,12.93
2018-06-12T23:35:16.078Z,10.78
2018-06-12T23:38:26.769Z,13.03
2018-06-12T23:41:36.695Z,13.83
2018-06-12T23:44:46.678Z,11.83
2018-06-12T23:47:57.189Z,9.60
2018-06-12T23:51:07.723Z,14.40
2018-06-12T23:54:17.712Z,10.85
2018-06-12T23:57:27.843Z,13.90
